sensor_id;sensor_type;location;lat;lon;timestamp;P1;durP1;ratioP1;P2;durP2;ratioP2
10489;SDS011;35569;48.402;10.670;2022-11-30T00:00:25;11.30;;;10.60;;
10489;SDS011;35569;48.402;10.670;2022-11-30T00:01:07;11.13;;;10.20;;
10489;SDS011;35569;48.402;10.670;2022-11-30T00:01:40;11.33;;;10.53;;
10489;SDS011;35569;48.402;10.670;2022-11-30T00:02:13;10.00;;;9.20;;
10489;SDS011;35569;48.402;10.670;2022-11-30T00:02:48;10.33;;;9.43;;
10489;SDS011;35569;48.402;10.670;2022-11-30T00:03:20;11.60;;;10.70;;
10489;SDS011;35569;48.402;10.670;2022-11-30T00:03:53;10.50;;;9.80;;
10489;SDS011;35569;48.402;10.670;2022-11-30T00:04:29;10.40;;;9.73;;
10489;SDS011;35569;48.402;10.670;2022-11-30T00:05:01;11.10;;;10.30;;
10489;SDS011;35569;48.402;10.670;2022-11-30T00:05:33;11.40;;;10.50;;
10489;SDS011;35569;48.402;10.670;2022-11-30T00:06:09;10.23;;;9.33;;
10489;SDS011;35569;48.402;10.670;2022-11-30T00:06:42;10.13;;;9.43;;
10489;SDS011;35569;48.402;10.670;2022-11-30T00:07:14;10.93;;;10.10;;
10489;SDS011;35569;48.402;10.670;2022-11-30T00:07:49;10.50;;;9.80;;
10489;SDS011;35569;48.402;10.670;2022-11-30T00:08:21;10.50;;;9.80;;
10489;SDS011;35569;48.402;10.670;2022-11-30T00:08:56;10.30;;;9.60;;
10489;SDS011;35569;48.402;10.670;2022-11-30T00:09:32;10.40;;;9.80;;
10489;SDS011;35569;48.402;10.670;2022-11-30T00:10:05;10.33;;;9.50;;
10489;SDS011;35569;48.402;10.670;2022-11-30T00:10:39;9.77;;;9.00;;
10489;SDS011;35569;48.402;10.670;2022-11-30T00:11:14;9.87;;;9.10;;
10489;SDS011;35569;48.402;10.670;2022-11-30T00:11:48;10.77;;;9.90;;
10489;SDS011;35569;48.402;10.670;2022-11-30T00:12:22;11.10;;;10.30;;
10489;SDS011;35569;48.402;10.670;2022-11-30T00:12:57;10.53;;;9.87;;
10489;SDS011;35569;48.402;10.670;2022-11-30T00:13:29;11.23;;;10.43;;
10489;SDS011;35569;48.402;10.670;2022-11-30T00:14:01;9.87;;;9.20;;
10489;SDS011;35569;48.402;10.670;2022-11-30T00:14:39;10.47;;;9.77;;
10489;SDS011;35569;48.402;10.670;2022-11-30T00:15:12;10.57;;;9.67;;
10489;SDS011;35569;48.402;10.670;2022-11-30T00:15:45;11.23;;;10.33;;
10489;SDS011;35569;48.402;10.670;2022-11-30T00:16:17;11.47;;;10.40;;
10489;SDS011;35569;48.402;10.670;2022-11-30T00:16:52;10.77;;;10.00;;
10489;SDS011;35569;48.402;10.670;2022-11-30T00:17:24;10.53;;;9.83;;
10489;SDS011;35569;48.402;10.670;2022-11-30T00:17:56;9.70;;;9.00;;
10489;SDS011;35569;48.402;10.670;2022-11-30T00:18:32;9.93;;;9.23;;
10489;SDS011;35569;48.402;10.670;2022-11-30T00:19:05;10.67;;;9.97;;
10489;SDS011;35569;48.402;10.670;2022-11-30T00:19:37;10.30;;;9.70;;
10489;SDS011;35569;48.402;10.670;2022-11-30T00:20:12;11.27;;;10.37;;
10489;SDS011;35569;48.402;10.670;2022-11-30T00:20:45;11.73;;;10.80;;
10489;SDS011;35569;48.402;10.670;2022-11-30T00:21:17;11.50;;;10.70;;
10489;SDS011;35569;48.402;10.670;2022-11-30T00:21:52;10.50;;;9.80;;
10489;SDS011;35569;48.402;10.670;2022-11-30T00:22:24;10.27;;;9.67;;
10489;SDS011;35569;48.402;10.670;2022-11-30T00:22:57;9.80;;;9.20;;
10489;SDS011;35569;48.402;10.670;2022-11-30T00:23:32;10.70;;;9.90;;
10489;SDS011;35569;48.402;10.670;2022-11-30T00:24:05;10.90;;;10.00;;
10489;SDS011;35569;48.402;10.670;2022-11-30T00:24:37;10.43;;;9.73;;
10489;SDS011;35569;48.402;10.670;2022-11-30T00:25:12;10.90;;;10.00;;
10489;SDS011;35569;48.402;10.670;2022-11-30T00:25:45;10.80;;;10.00;;
10489;SDS011;35569;48.402;10.670;2022-11-30T00:26:18;10.87;;;9.97;;
10489;SDS011;35569;48.402;10.670;2022-11-30T00:26:53;10.00;;;9.30;;
10489;SDS011;35569;48.402;10.670;2022-11-30T00:27:26;10.73;;;9.93;;
10489;SDS011;35569;48.402;10.670;2022-11-30T00:27:59;10.77;;;9.90;;
10489;SDS011;35569;48.402;10.670;2022-11-30T00:28:34;10.73;;;9.83;;
10489;SDS011;35569;48.402;10.670;2022-11-30T00:29:07;9.97;;;9.30;;
10489;SDS011;35569;48.402;10.670;2022-11-30T00:29:42;9.97;;;9.33;;
10489;SDS011;35569;48.402;10.670;2022-11-30T00:30:17;10.30;;;9.40;;
10489;SDS011;35569;48.402;10.670;2022-11-30T00:30:55;11.10;;;10.20;;
10489;SDS011;35569;48.402;10.670;2022-11-30T00:31:28;10.53;;;9.73;;
10489;SDS011;35569;48.402;10.670;2022-11-30T00:32:03;10.73;;;10.03;;
10489;SDS011;35569;48.402;10.670;2022-11-30T00:32:35;10.33;;;9.63;;
10489;SDS011;35569;48.402;10.670;2022-11-30T00:33:08;9.77;;;9.10;;
10489;SDS011;35569;48.402;10.670;2022-11-30T00:33:43;10.07;;;9.37;;
10489;SDS011;35569;48.402;10.670;2022-11-30T00:34:15;9.83;;;9.20;;
10489;SDS011;35569;48.402;10.670;2022-11-30T00:34:47;10.83;;;10.13;;
10489;SDS011;35569;48.402;10.670;2022-11-30T00:35:22;10.40;;;9.50;;
10489;SDS011;35569;48.402;10.670;2022-11-30T00:35:55;9.97;;;9.17;;
10489;SDS011;35569;48.402;10.670;2022-11-30T00:36:28;10.40;;;9.60;;
10489;SDS011;35569;48.402;10.670;2022-11-30T00:37:02;9.20;;;8.70;;
10489;SDS011;35569;48.402;10.670;2022-11-30T00:37:35;10.10;;;9.20;;
10489;SDS011;35569;48.402;10.670;2022-11-30T00:38:07;9.90;;;9.30;;
10489;SDS011;35569;48.402;10.670;2022-11-30T00:38:42;10.00;;;9.40;;
10489;SDS011;35569;48.402;10.670;2022-11-30T00:39:15;9.97;;;9.33;;
10489;SDS011;35569;48.402;10.670;2022-11-30T00:39:47;11.13;;;10.20;;
10489;SDS011;35569;48.402;10.670;2022-11-30T00:40:22;9.93;;;9.23;;
10489;SDS011;35569;48.402;10.670;2022-11-30T00:40:54;11.33;;;10.50;;
10489;SDS011;35569;48.402;10.670;2022-11-30T00:41:27;10.53;;;9.73;;
10489;SDS011;35569;48.402;10.670;2022-11-30T00:42:02;9.93;;;9.13;;
10489;SDS011;35569;48.402;10.670;2022-11-30T00:42:34;10.00;;;9.30;;
10489;SDS011;35569;48.402;10.670;2022-11-30T00:43:06;10.03;;;9.13;;
10489;SDS011;35569;48.402;10.670;2022-11-30T00:43:41;10.77;;;9.83;;
10489;SDS011;35569;48.402;10.670;2022-11-30T00:44:14;9.13;;;8.63;;
10489;SDS011;35569;48.402;10.670;2022-11-30T00:44:51;10.10;;;9.40;;
10489;SDS011;35569;48.402;10.670;2022-11-30T00:45:23;9.83;;;9.13;;
10489;SDS011;35569;48.402;10.670;2022-11-30T00:45:55;10.53;;;9.83;;
10489;SDS011;35569;48.402;10.670;2022-11-30T00:46:31;10.27;;;9.57;;
10489;SDS011;35569;48.402;10.670;2022-11-30T00:47:03;9.20;;;8.60;;
10489;SDS011;35569;48.402;10.670;2022-11-30T00:47:35;10.70;;;9.90;;
10489;SDS011;35569;48.402;10.670;2022-11-30T00:48:10;10.03;;;9.33;;
10489;SDS011;35569;48.402;10.670;2022-11-30T00:48:42;9.33;;;8.73;;
10489;SDS011;35569;48.402;10.670;2022-11-30T00:49:15;8.97;;;8.43;;
10489;SDS011;35569;48.402;10.670;2022-11-30T00:49:49;10.27;;;9.60;;
10489;SDS011;35569;48.402;10.670;2022-11-30T00:50:22;8.70;;;8.10;;
10489;SDS011;35569;48.402;10.670;2022-11-30T00:50:54;10.60;;;9.90;;
10489;SDS011;35569;48.402;10.670;2022-11-30T00:51:29;10.30;;;9.50;;
10489;SDS011;35569;48.402;10.670;2022-11-30T00:52:01;10.13;;;9.43;;
10489;SDS011;35569;48.402;10.670;2022-11-30T00:52:34;10.23;;;9.50;;
10489;SDS011;35569;48.402;10.670;2022-11-30T00:53:09;10.67;;;9.80;;
10489;SDS011;35569;48.402;10.670;2022-11-30T00:53:41;10.23;;;9.53;;
10489;SDS011;35569;48.402;10.670;2022-11-30T00:54:13;10.40;;;9.60;;
10489;SDS011;35569;48.402;10.670;2022-11-30T00:54:48;10.40;;;9.70;;
10489;SDS011;35569;48.402;10.670;2022-11-30T00:55:20;9.90;;;9.30;;
10489;SDS011;35569;48.402;10.670;2022-11-30T00:55:52;9.27;;;8.70;;
10489;SDS011;35569;48.402;10.670;2022-11-30T00:56:25;9.73;;;8.93;;
10489;SDS011;35569;48.402;10.670;2022-11-30T00:56:59;9.27;;;8.73;;
10489;SDS011;35569;48.402;10.670;2022-11-30T00:57:33;9.50;;;8.90;;
10489;SDS011;35569;48.402;10.670;2022-11-30T00:58:05;9.17;;;8.63;;
10489;SDS011;35569;48.402;10.670;2022-11-30T00:58:38;10.10;;;9.30;;
10489;SDS011;35569;48.402;10.670;2022-11-30T00:59:12;9.70;;;9.10;;
10489;SDS011;35569;48.402;10.670;2022-11-30T00:59:45;9.67;;;9.07;;
10489;SDS011;35569;48.402;10.670;2022-11-30T01:00:20;10.13;;;9.20;;
10489;SDS011;35569;48.402;10.670;2022-11-30T01:00:55;9.63;;;8.93;;
10489;SDS011;35569;48.402;10.670;2022-11-30T01:01:27;10.13;;;9.43;;
10489;SDS011;35569;48.402;10.670;2022-11-30T01:01:59;9.70;;;9.10;;
10489;SDS011;35569;48.402;10.670;2022-11-30T01:02:34;9.87;;;9.17;;
10489;SDS011;35569;48.402;10.670;2022-11-30T01:03:07;8.83;;;8.33;;
10489;SDS011;35569;48.402;10.670;2022-11-30T01:03:39;8.70;;;8.20;;
10489;SDS011;35569;48.402;10.670;2022-11-30T01:04:14;10.17;;;9.37;;
10489;SDS011;35569;48.402;10.670;2022-11-30T01:04:47;9.60;;;8.77;;
10489;SDS011;35569;48.402;10.670;2022-11-30T01:05:20;9.40;;;8.73;;
10489;SDS011;35569;48.402;10.670;2022-11-30T01:05:59;9.60;;;9.00;;
10489;SDS011;35569;48.402;10.670;2022-11-30T01:06:32;9.70;;;8.93;;
10489;SDS011;35569;48.402;10.670;2022-11-30T01:07:07;10.07;;;9.27;;
10489;SDS011;35569;48.402;10.670;2022-11-30T01:07:39;9.77;;;9.17;;
10489;SDS011;35569;48.402;10.670;2022-11-30T01:08:11;9.60;;;8.90;;
10489;SDS011;35569;48.402;10.670;2022-11-30T01:08:46;10.40;;;9.50;;
10489;SDS011;35569;48.402;10.670;2022-11-30T01:09:19;9.67;;;9.07;;
10489;SDS011;35569;48.402;10.670;2022-11-30T01:09:51;9.37;;;8.87;;
10489;SDS011;35569;48.402;10.670;2022-11-30T01:10:27;8.87;;;8.27;;
10489;SDS011;35569;48.402;10.670;2022-11-30T01:11:03;9.27;;;8.60;;
10489;SDS011;35569;48.402;10.670;2022-11-30T01:11:37;9.10;;;8.60;;
10489;SDS011;35569;48.402;10.670;2022-11-30T01:12:13;9.67;;;9.07;;
10489;SDS011;35569;48.402;10.670;2022-11-30T01:12:45;8.80;;;8.20;;
10489;SDS011;35569;48.402;10.670;2022-11-30T01:13:18;8.80;;;8.20;;
10489;SDS011;35569;48.402;10.670;2022-11-30T01:13:50;9.90;;;9.20;;
10489;SDS011;35569;48.402;10.670;2022-11-30T01:14:25;9.63;;;8.90;;
10489;SDS011;35569;48.402;10.670;2022-11-30T01:14:58;8.70;;;8.10;;
10489;SDS011;35569;48.402;10.670;2022-11-30T01:15:34;9.27;;;8.67;;
10489;SDS011;35569;48.402;10.670;2022-11-30T01:16:10;9.13;;;8.53;;
10489;SDS011;35569;48.402;10.670;2022-11-30T01:16:43;9.90;;;9.20;;
10489;SDS011;35569;48.402;10.670;2022-11-30T01:17:15;8.90;;;8.30;;
10489;SDS011;35569;48.402;10.670;2022-11-30T01:17:50;9.00;;;8.30;;
10489;SDS011;35569;48.402;10.670;2022-11-30T01:18:23;9.20;;;8.60;;
10489;SDS011;35569;48.402;10.670;2022-11-30T01:18:55;8.83;;;8.33;;
10489;SDS011;35569;48.402;10.670;2022-11-30T01:19:27;9.60;;;9.00;;
10489;SDS011;35569;48.402;10.670;2022-11-30T01:20:02;9.93;;;9.23;;
10489;SDS011;35569;48.402;10.670;2022-11-30T01:20:34;10.00;;;9.40;;
10489;SDS011;35569;48.402;10.670;2022-11-30T01:21:11;8.73;;;8.23;;
10489;SDS011;35569;48.402;10.670;2022-11-30T01:21:47;9.87;;;9.17;;
10489;SDS011;35569;48.402;10.670;2022-11-30T01:22:19;8.33;;;7.83;;
10489;SDS011;35569;48.402;10.670;2022-11-30T01:22:52;10.13;;;9.20;;
10489;SDS011;35569;48.402;10.670;2022-11-30T01:23:28;9.80;;;9.10;;
10489;SDS011;35569;48.402;10.670;2022-11-30T01:24:00;8.97;;;8.47;;
10489;SDS011;35569;48.402;10.670;2022-11-30T01:24:32;10.53;;;9.73;;
10489;SDS011;35569;48.402;10.670;2022-11-30T01:25:07;9.40;;;8.70;;
10489;SDS011;35569;48.402;10.670;2022-11-30T01:25:40;9.63;;;9.03;;
10489;SDS011;35569;48.402;10.670;2022-11-30T01:26:12;9.17;;;8.50;;
10489;SDS011;35569;48.402;10.670;2022-11-30T01:26:47;9.30;;;8.80;;
10489;SDS011;35569;48.402;10.670;2022-11-30T01:27:19;9.37;;;8.77;;
10489;SDS011;35569;48.402;10.670;2022-11-30T01:27:51;9.00;;;8.40;;
10489;SDS011;35569;48.402;10.670;2022-11-30T01:28:26;10.50;;;9.70;;
10489;SDS011;35569;48.402;10.670;2022-11-30T01:28:58;8.67;;;8.17;;
10489;SDS011;35569;48.402;10.670;2022-11-30T01:29:31;9.70;;;9.03;;
10489;SDS011;35569;48.402;10.670;2022-11-30T01:30:06;9.90;;;9.20;;
10489;SDS011;35569;48.402;10.670;2022-11-30T01:30:42;8.60;;;8.10;;
10489;SDS011;35569;48.402;10.670;2022-11-30T01:31:14;9.63;;;8.93;;
10489;SDS011;35569;48.402;10.670;2022-11-30T01:31:49;9.30;;;8.70;;
10489;SDS011;35569;48.402;10.670;2022-11-30T01:32:21;9.30;;;8.47;;
10489;SDS011;35569;48.402;10.670;2022-11-30T01:32:53;9.10;;;8.40;;
10489;SDS011;35569;48.402;10.670;2022-11-30T01:33:25;8.87;;;8.37;;
10489;SDS011;35569;48.402;10.670;2022-11-30T01:34:01;9.00;;;8.40;;
10489;SDS011;35569;48.402;10.670;2022-11-30T01:34:33;9.27;;;8.67;;
10489;SDS011;35569;48.402;10.670;2022-11-30T01:35:05;8.60;;;8.10;;
10489;SDS011;35569;48.402;10.670;2022-11-30T01:35:41;9.40;;;8.60;;
10489;SDS011;35569;48.402;10.670;2022-11-30T01:36:14;8.80;;;8.30;;
10489;SDS011;35569;48.402;10.670;2022-11-30T01:36:47;8.80;;;8.30;;
10489;SDS011;35569;48.402;10.670;2022-11-30T01:37:22;8.80;;;8.17;;
10489;SDS011;35569;48.402;10.670;2022-11-30T01:37:54;9.33;;;8.53;;
10489;SDS011;35569;48.402;10.670;2022-11-30T01:38:29;8.67;;;8.07;;
10489;SDS011;35569;48.402;10.670;2022-11-30T01:39:02;9.20;;;8.60;;
10489;SDS011;35569;48.402;10.670;2022-11-30T01:39:40;8.63;;;8.03;;
10489;SDS011;35569;48.402;10.670;2022-11-30T01:40:12;8.23;;;7.80;;
10489;SDS011;35569;48.402;10.670;2022-11-30T01:40:48;8.50;;;8.00;;
10489;SDS011;35569;48.402;10.670;2022-11-30T01:41:24;9.10;;;8.47;;
10489;SDS011;35569;48.402;10.670;2022-11-30T01:41:57;9.37;;;8.70;;
10489;SDS011;35569;48.402;10.670;2022-11-30T01:42:33;7.83;;;7.33;;
10489;SDS011;35569;48.402;10.670;2022-11-30T01:43:08;8.93;;;8.33;;
10489;SDS011;35569;48.402;10.670;2022-11-30T01:43:41;8.33;;;7.83;;
10489;SDS011;35569;48.402;10.670;2022-11-30T01:45:19;8.43;;;7.73;;
10489;SDS011;35569;48.402;10.670;2022-11-30T01:45:56;9.33;;;8.63;;
10489;SDS011;35569;48.402;10.670;2022-11-30T01:46:30;8.73;;;8.23;;
10489;SDS011;35569;48.402;10.670;2022-11-30T01:47:05;8.70;;;8.00;;
10489;SDS011;35569;48.402;10.670;2022-11-30T01:47:44;7.27;;;6.87;;
10489;SDS011;35569;48.402;10.670;2022-11-30T01:48:17;7.80;;;7.30;;
10489;SDS011;35569;48.402;10.670;2022-11-30T01:48:52;8.43;;;7.93;;
10489;SDS011;35569;48.402;10.670;2022-11-30T01:49:29;7.87;;;7.37;;
10489;SDS011;35569;48.402;10.670;2022-11-30T01:50:03;7.73;;;7.30;;
10489;SDS011;35569;48.402;10.670;2022-11-30T01:50:41;8.50;;;8.00;;
10489;SDS011;35569;48.402;10.670;2022-11-30T01:51:13;8.60;;;8.00;;
10489;SDS011;35569;48.402;10.670;2022-11-30T01:51:47;9.03;;;8.33;;
10489;SDS011;35569;48.402;10.670;2022-11-30T01:52:24;8.80;;;8.00;;
10489;SDS011;35569;48.402;10.670;2022-11-30T01:52:58;9.03;;;8.43;;
10489;SDS011;35569;48.402;10.670;2022-11-30T01:53:30;8.67;;;8.07;;
10489;SDS011;35569;48.402;10.670;2022-11-30T01:54:06;9.37;;;8.57;;
10489;SDS011;35569;48.402;10.670;2022-11-30T01:54:41;8.70;;;8.10;;
10489;SDS011;35569;48.402;10.670;2022-11-30T01:55:17;9.37;;;8.77;;
10489;SDS011;35569;48.402;10.670;2022-11-30T01:55:53;9.50;;;8.70;;
10489;SDS011;35569;48.402;10.670;2022-11-30T01:56:25;8.67;;;8.00;;
10489;SDS011;35569;48.402;10.670;2022-11-30T01:56:58;8.37;;;7.87;;
10489;SDS011;35569;48.402;10.670;2022-11-30T01:57:36;10.00;;;8.03;;
10489;SDS011;35569;48.402;10.670;2022-11-30T01:58:11;9.27;;;8.57;;
10489;SDS011;35569;48.402;10.670;2022-11-30T01:58:46;9.20;;;8.43;;
10489;SDS011;35569;48.402;10.670;2022-11-30T01:59:19;8.43;;;7.90;;
10489;SDS011;35569;48.402;10.670;2022-11-30T01:59:56;8.53;;;7.93;;
10489;SDS011;35569;48.402;10.670;2022-11-30T02:00:29;9.03;;;8.43;;
10489;SDS011;35569;48.402;10.670;2022-11-30T02:01:04;8.60;;;8.10;;
10489;SDS011;35569;48.402;10.670;2022-11-30T02:01:39;8.90;;;8.30;;
10489;SDS011;35569;48.402;10.670;2022-11-30T02:02:12;8.37;;;7.83;;
10489;SDS011;35569;48.402;10.670;2022-11-30T02:02:46;8.77;;;8.10;;
10489;SDS011;35569;48.402;10.670;2022-11-30T02:03:27;8.50;;;8.00;;
10489;SDS011;35569;48.402;10.670;2022-11-30T02:04:03;9.00;;;8.40;;
10489;SDS011;35569;48.402;10.670;2022-11-30T02:04:39;8.73;;;8.23;;
10489;SDS011;35569;48.402;10.670;2022-11-30T02:05:14;10.23;;;9.53;;
10489;SDS011;35569;48.402;10.670;2022-11-30T02:05:48;9.03;;;8.37;;
10489;SDS011;35569;48.402;10.670;2022-11-30T02:06:21;9.37;;;8.70;;
10489;SDS011;35569;48.402;10.670;2022-11-30T02:06:56;9.33;;;8.63;;
10489;SDS011;35569;48.402;10.670;2022-11-30T02:07:30;8.00;;;7.60;;
10489;SDS011;35569;48.402;10.670;2022-11-30T02:08:02;9.50;;;8.50;;
10489;SDS011;35569;48.402;10.670;2022-11-30T02:08:38;9.43;;;8.77;;
10489;SDS011;35569;48.402;10.670;2022-11-30T02:09:10;8.67;;;8.00;;
10489;SDS011;35569;48.402;10.670;2022-11-30T02:09:44;8.50;;;8.00;;
10489;SDS011;35569;48.402;10.670;2022-11-30T02:10:21;8.63;;;8.13;;
10489;SDS011;35569;48.402;10.670;2022-11-30T02:10:56;9.17;;;8.57;;
10489;SDS011;35569;48.402;10.670;2022-11-30T02:11:30;9.03;;;8.43;;
10489;SDS011;35569;48.402;10.670;2022-11-30T02:12:05;8.30;;;7.80;;
10489;SDS011;35569;48.402;10.670;2022-11-30T02:12:41;8.97;;;8.40;;
10489;SDS011;35569;48.402;10.670;2022-11-30T02:13:22;8.63;;;8.13;;
10489;SDS011;35569;48.402;10.670;2022-11-30T02:14:08;9.37;;;8.57;;
10489;SDS011;35569;48.402;10.670;2022-11-30T02:14:45;9.53;;;8.83;;
10489;SDS011;35569;48.402;10.670;2022-11-30T02:15:23;9.27;;;8.67;;
10489;SDS011;35569;48.402;10.670;2022-11-30T02:16:00;9.00;;;8.40;;
10489;SDS011;35569;48.402;10.670;2022-11-30T02:16:43;8.30;;;7.80;;
10489;SDS011;35569;48.402;10.670;2022-11-30T02:17:24;8.13;;;7.63;;
10489;SDS011;35569;48.402;10.670;2022-11-30T02:18:00;9.30;;;8.60;;
10489;SDS011;35569;48.402;10.670;2022-11-30T02:18:38;9.20;;;8.50;;
10489;SDS011;35569;48.402;10.670;2022-11-30T02:20:18;8.73;;;8.23;;
10489;SDS011;35569;48.402;10.670;2022-11-30T02:21:08;8.23;;;7.70;;
10489;SDS011;35569;48.402;10.670;2022-11-30T02:21:44;9.43;;;8.73;;
10489;SDS011;35569;48.402;10.670;2022-11-30T02:22:22;9.63;;;8.93;;
10489;SDS011;35569;48.402;10.670;2022-11-30T02:24:24;8.53;;;8.03;;
10489;SDS011;35569;48.402;10.670;2022-11-30T02:25:13;8.87;;;8.37;;
10489;SDS011;35569;48.402;10.670;2022-11-30T02:25:52;9.00;;;8.30;;
10489;SDS011;35569;48.402;10.670;2022-11-30T02:26:37;9.70;;;8.90;;
10489;SDS011;35569;48.402;10.670;2022-11-30T02:27:26;9.20;;;8.50;;
10489;SDS011;35569;48.402;10.670;2022-11-30T02:28:15;8.40;;;7.80;;
10489;SDS011;35569;48.402;10.670;2022-11-30T02:29:11;9.17;;;8.57;;
10489;SDS011;35569;48.402;10.670;2022-11-30T02:29:45;8.50;;;8.00;;
10489;SDS011;35569;48.402;10.670;2022-11-30T02:30:20;9.37;;;8.77;;
10489;SDS011;35569;48.402;10.670;2022-11-30T02:30:56;10.50;;;9.60;;
10489;SDS011;35569;48.402;10.670;2022-11-30T02:31:33;9.37;;;8.77;;
10489;SDS011;35569;48.402;10.670;2022-11-30T02:32:09;9.67;;;8.97;;
10489;SDS011;35569;48.402;10.670;2022-11-30T02:32:47;10.20;;;9.50;;
10489;SDS011;35569;48.402;10.670;2022-11-30T02:33:23;9.57;;;8.87;;
10489;SDS011;35569;48.402;10.670;2022-11-30T02:33:58;8.70;;;8.17;;
10489;SDS011;35569;48.402;10.670;2022-11-30T02:34:35;8.97;;;8.27;;
10489;SDS011;35569;48.402;10.670;2022-11-30T02:35:08;9.87;;;9.23;;
10489;SDS011;35569;48.402;10.670;2022-11-30T02:35:42;9.47;;;8.87;;
10489;SDS011;35569;48.402;10.670;2022-11-30T02:36:25;9.57;;;8.87;;
10489;SDS011;35569;48.402;10.670;2022-11-30T02:36:58;9.23;;;8.63;;
10489;SDS011;35569;48.402;10.670;2022-11-30T02:37:31;9.23;;;8.73;;
10489;SDS011;35569;48.402;10.670;2022-11-30T02:38:07;9.23;;;8.57;;
10489;SDS011;35569;48.402;10.670;2022-11-30T02:38:40;9.13;;;8.57;;
10489;SDS011;35569;48.402;10.670;2022-11-30T02:39:13;9.20;;;8.60;;
10489;SDS011;35569;48.402;10.670;2022-11-30T02:39:49;9.83;;;9.13;;
10489;SDS011;35569;48.402;10.670;2022-11-30T02:40:21;8.87;;;8.27;;
10489;SDS011;35569;48.402;10.670;2022-11-30T02:40:54;10.07;;;9.37;;
10489;SDS011;35569;48.402;10.670;2022-11-30T02:41:33;10.43;;;9.53;;
10489;SDS011;35569;48.402;10.670;2022-11-30T02:42:09;10.20;;;9.43;;
10489;SDS011;35569;48.402;10.670;2022-11-30T02:42:42;9.20;;;8.60;;
10489;SDS011;35569;48.402;10.670;2022-11-30T02:43:17;9.90;;;9.20;;
10489;SDS011;35569;48.402;10.670;2022-11-30T02:43:53;9.40;;;8.80;;
10489;SDS011;35569;48.402;10.670;2022-11-30T02:44:25;9.57;;;8.87;;
10489;SDS011;35569;48.402;10.670;2022-11-30T02:45:02;9.67;;;9.07;;
10489;SDS011;35569;48.402;10.670;2022-11-30T02:45:37;9.67;;;8.97;;
10489;SDS011;35569;48.402;10.670;2022-11-30T02:46:13;9.23;;;8.63;;
10489;SDS011;35569;48.402;10.670;2022-11-30T02:47:47;9.53;;;8.93;;
10489;SDS011;35569;48.402;10.670;2022-11-30T02:48:28;10.03;;;9.37;;
10489;SDS011;35569;48.402;10.670;2022-11-30T02:49:04;8.80;;;8.30;;
10489;SDS011;35569;48.402;10.670;2022-11-30T02:49:41;9.33;;;8.63;;
10489;SDS011;35569;48.402;10.670;2022-11-30T02:50:20;8.83;;;8.30;;
10489;SDS011;35569;48.402;10.670;2022-11-30T02:50:55;9.40;;;8.80;;
10489;SDS011;35569;48.402;10.670;2022-11-30T02:51:28;9.70;;;9.00;;
10489;SDS011;35569;48.402;10.670;2022-11-30T02:52:05;9.60;;;8.90;;
10489;SDS011;35569;48.402;10.670;2022-11-30T02:52:37;9.57;;;8.97;;
10489;SDS011;35569;48.402;10.670;2022-11-30T02:53:10;9.07;;;8.50;;
10489;SDS011;35569;48.402;10.670;2022-11-30T02:53:45;8.70;;;8.20;;
10489;SDS011;35569;48.402;10.670;2022-11-30T02:54:17;8.90;;;8.30;;
10489;SDS011;35569;48.402;10.670;2022-11-30T02:54:50;9.60;;;9.00;;
10489;SDS011;35569;48.402;10.670;2022-11-30T02:55:25;9.50;;;8.90;;
10489;SDS011;35569;48.402;10.670;2022-11-30T02:55:59;9.90;;;9.20;;
10489;SDS011;35569;48.402;10.670;2022-11-30T02:56:31;10.30;;;9.50;;
10489;SDS011;35569;48.402;10.670;2022-11-30T02:57:07;9.90;;;9.20;;
10489;SDS011;35569;48.402;10.670;2022-11-30T02:57:39;9.73;;;9.13;;
10489;SDS011;35569;48.402;10.670;2022-11-30T02:58:11;9.77;;;9.07;;
10489;SDS011;35569;48.402;10.670;2022-11-30T02:58:48;10.13;;;9.33;;
10489;SDS011;35569;48.402;10.670;2022-11-30T02:59:23;8.63;;;8.13;;
10489;SDS011;35569;48.402;10.670;2022-11-30T02:59:55;10.73;;;9.73;;
10489;SDS011;35569;48.402;10.670;2022-11-30T03:00:30;9.83;;;9.10;;
10489;SDS011;35569;48.402;10.670;2022-11-30T03:01:02;10.13;;;9.43;;
10489;SDS011;35569;48.402;10.670;2022-11-30T03:01:35;10.03;;;9.43;;
10489;SDS011;35569;48.402;10.670;2022-11-30T03:02:10;9.00;;;8.50;;
10489;SDS011;35569;48.402;10.670;2022-11-30T03:02:42;10.33;;;9.43;;
10489;SDS011;35569;48.402;10.670;2022-11-30T03:03:14;9.90;;;9.10;;
10489;SDS011;35569;48.402;10.670;2022-11-30T03:03:49;9.70;;;9.10;;
10489;SDS011;35569;48.402;10.670;2022-11-30T03:04:21;9.30;;;8.60;;
10489;SDS011;35569;48.402;10.670;2022-11-30T03:04:54;9.37;;;8.77;;
10489;SDS011;35569;48.402;10.670;2022-11-30T03:05:29;10.57;;;9.70;;
10489;SDS011;35569;48.402;10.670;2022-11-30T03:06:01;8.83;;;8.33;;
10489;SDS011;35569;48.402;10.670;2022-11-30T03:06:33;9.40;;;8.80;;
10489;SDS011;35569;48.402;10.670;2022-11-30T03:07:08;9.80;;;9.20;;
10489;SDS011;35569;48.402;10.670;2022-11-30T03:07:40;9.87;;;9.20;;
10489;SDS011;35569;48.402;10.670;2022-11-30T03:08:13;9.40;;;8.80;;
10489;SDS011;35569;48.402;10.670;2022-11-30T03:08:45;10.13;;;9.40;;
10489;SDS011;35569;48.402;10.670;2022-11-30T03:09:20;10.47;;;9.63;;
10489;SDS011;35569;48.402;10.670;2022-11-30T03:09:52;9.90;;;9.23;;
10489;SDS011;35569;48.402;10.670;2022-11-30T03:10:24;10.37;;;9.67;;
10489;SDS011;35569;48.402;10.670;2022-11-30T03:11:00;9.80;;;9.20;;
10489;SDS011;35569;48.402;10.670;2022-11-30T03:11:32;10.87;;;10.07;;
10489;SDS011;35569;48.402;10.670;2022-11-30T03:12:05;9.83;;;9.10;;
10489;SDS011;35569;48.402;10.670;2022-11-30T03:12:40;9.90;;;9.20;;
10489;SDS011;35569;48.402;10.670;2022-11-30T03:13:12;10.07;;;9.47;;
10489;SDS011;35569;48.402;10.670;2022-11-30T03:13:44;9.53;;;8.83;;
10489;SDS011;35569;48.402;10.670;2022-11-30T03:14:16;9.43;;;8.77;;
10489;SDS011;35569;48.402;10.670;2022-11-30T03:14:54;9.87;;;9.27;;
10489;SDS011;35569;48.402;10.670;2022-11-30T03:15:26;10.03;;;9.17;;
10489;SDS011;35569;48.402;10.670;2022-11-30T03:16:04;10.40;;;9.53;;
10489;SDS011;35569;48.402;10.670;2022-11-30T03:16:37;8.80;;;8.30;;
10489;SDS011;35569;48.402;10.670;2022-11-30T03:17:11;10.40;;;9.53;;
10489;SDS011;35569;48.402;10.670;2022-11-30T03:17:44;9.37;;;8.77;;
10489;SDS011;35569;48.402;10.670;2022-11-30T03:18:19;10.10;;;9.40;;
10489;SDS011;35569;48.402;10.670;2022-11-30T03:18:51;9.43;;;8.73;;
10489;SDS011;35569;48.402;10.670;2022-11-30T03:19:23;10.00;;;9.30;;
10489;SDS011;35569;48.402;10.670;2022-11-30T03:19:58;10.30;;;9.53;;
10489;SDS011;35569;48.402;10.670;2022-11-30T03:20:30;9.60;;;9.00;;
10489;SDS011;35569;48.402;10.670;2022-11-30T03:21:03;8.97;;;8.40;;
10489;SDS011;35569;48.402;10.670;2022-11-30T03:21:39;10.70;;;10.00;;
10489;SDS011;35569;48.402;10.670;2022-11-30T03:22:11;10.10;;;9.40;;
10489;SDS011;35569;48.402;10.670;2022-11-30T03:22:44;9.40;;;8.70;;
10489;SDS011;35569;48.402;10.670;2022-11-30T03:23:18;10.00;;;9.30;;
10489;SDS011;35569;48.402;10.670;2022-11-30T03:23:51;10.33;;;9.63;;
10489;SDS011;35569;48.402;10.670;2022-11-30T03:24:23;9.37;;;8.77;;
10489;SDS011;35569;48.402;10.670;2022-11-30T03:24:55;9.70;;;9.10;;
10489;SDS011;35569;48.402;10.670;2022-11-30T03:25:30;10.37;;;9.53;;
10489;SDS011;35569;48.402;10.670;2022-11-30T03:26:03;9.73;;;9.07;;
10489;SDS011;35569;48.402;10.670;2022-11-30T03:26:36;9.40;;;8.70;;
10489;SDS011;35569;48.402;10.670;2022-11-30T03:27:11;9.30;;;8.67;;
10489;SDS011;35569;48.402;10.670;2022-11-30T03:27:43;9.90;;;9.27;;